sensor_id;sensor_type;location;lat;lon;timestamp;P1;durP1;ratioP1;P2;durP2;ratioP2
787;SDS011;16074;42.708;23.312;2023-12-04T00:01:36;9.93;;;8.23;;
787;SDS011;16074;42.708;23.312;2023-12-04T00:04:11;7.72;;;6.88;;
787;SDS011;16074;42.708;23.312;2023-12-04T00:06:40;12.07;;;10.77;;
787;SDS011;16074;42.708;23.312;2023-12-04T00:09:09;10.02;;;8.27;;
787;SDS011;16074;42.708;23.312;2023-12-04T00:11:37;11.52;;;8.70;;
787;SDS011;16074;42.708;23.312;2023-12-04T00:14:06;10.68;;;8.98;;
787;SDS011;16074;42.708;23.312;2023-12-04T00:16:35;10.30;;;8.45;;
787;SDS011;16074;42.708;23.312;2023-12-04T00:19:04;12.65;;;8.95;;
787;SDS011;16074;42.708;23.312;2023-12-04T00:21:32;10.10;;;8.88;;
787;SDS011;16074;42.708;23.312;2023-12-04T00:24:00;10.20;;;8.48;;
787;SDS011;16074;42.708;23.312;2023-12-04T00:26:28;9.88;;;8.10;;
787;SDS011;16074;42.708;23.312;2023-12-04T00:28:56;12.13;;;8.55;;
787;SDS011;16074;42.708;23.312;2023-12-04T00:31:24;9.30;;;8.02;;
787;SDS011;16074;42.708;23.312;2023-12-04T00:33:54;10.00;;;8.63;;
787;SDS011;16074;42.708;23.312;2023-12-04T00:36:22;9.93;;;8.93;;
787;SDS011;16074;42.708;23.312;2023-12-04T00:38:50;12.07;;;9.60;;
787;SDS011;16074;42.708;23.312;2023-12-04T00:41:18;13.07;;;9.48;;
787;SDS011;16074;42.708;23.312;2023-12-04T00:43:46;10.13;;;8.38;;
787;SDS011;16074;42.708;23.312;2023-12-04T00:46:15;11.45;;;8.82;;
787;SDS011;16074;42.708;23.312;2023-12-04T00:48:43;10.60;;;9.50;;
787;SDS011;16074;42.708;23.312;2023-12-04T00:51:14;13.35;;;9.88;;
787;SDS011;16074;42.708;23.312;2023-12-04T00:53:42;12.32;;;9.77;;
787;SDS011;16074;42.708;23.312;2023-12-04T00:56:10;12.70;;;9.63;;
787;SDS011;16074;42.708;23.312;2023-12-04T00:58:38;12.45;;;9.15;;
787;SDS011;16074;42.708;23.312;2023-12-04T01:01:07;10.10;;;8.35;;
787;SDS011;16074;42.708;23.312;2023-12-04T01:03:35;10.02;;;9.00;;
787;SDS011;16074;42.708;23.312;2023-12-04T01:06:05;11.65;;;9.32;;
787;SDS011;16074;42.708;23.312;2023-12-04T01:08:35;14.00;;;8.95;;
787;SDS011;16074;42.708;23.312;2023-12-04T01:11:03;10.40;;;9.27;;
787;SDS011;16074;42.708;23.312;2023-12-04T01:13:31;10.90;;;9.23;;
787;SDS011;16074;42.708;23.312;2023-12-04T01:15:59;13.02;;;9.43;;
787;SDS011;16074;42.708;23.312;2023-12-04T01:18:28;16.35;;;11.45;;
787;SDS011;16074;42.708;23.312;2023-12-04T01:20:56;11.80;;;9.60;;
787;SDS011;16074;42.708;23.312;2023-12-04T01:23:25;11.93;;;9.70;;
787;SDS011;16074;42.708;23.312;2023-12-04T01:25:55;11.05;;;9.65;;
787;SDS011;16074;42.708;23.312;2023-12-04T01:28:23;12.80;;;11.20;;
787;SDS011;16074;42.708;23.312;2023-12-04T01:30:51;12.18;;;10.35;;
787;SDS011;16074;42.708;23.312;2023-12-04T01:33:19;12.48;;;9.80;;
787;SDS011;16074;42.708;23.312;2023-12-04T01:35:47;9.90;;;8.43;;
787;SDS011;16074;42.708;23.312;2023-12-04T01:38:17;9.18;;;8.23;;
787;SDS011;16074;42.708;23.312;2023-12-04T01:40:45;11.10;;;9.23;;
787;SDS011;16074;42.708;23.312;2023-12-04T01:43:15;11.45;;;9.70;;
787;SDS011;16074;42.708;23.312;2023-12-04T01:45:43;16.15;;;9.45;;
787;SDS011;16074;42.708;23.312;2023-12-04T01:48:12;10.63;;;8.65;;
787;SDS011;16074;42.708;23.312;2023-12-04T01:50:42;10.45;;;8.52;;
787;SDS011;16074;42.708;23.312;2023-12-04T01:53:11;13.18;;;10.45;;
787;SDS011;16074;42.708;23.312;2023-12-04T01:55:39;13.50;;;9.23;;
787;SDS011;16074;42.708;23.312;2023-12-04T01:58:08;11.00;;;9.55;;
787;SDS011;16074;42.708;23.312;2023-12-04T02:00:39;9.57;;;8.55;;
787;SDS011;16074;42.708;23.312;2023-12-04T02:03:07;13.80;;;11.60;;
787;SDS011;16074;42.708;23.312;2023-12-04T02:05:36;10.57;;;8.43;;
787;SDS011;16074;42.708;23.312;2023-12-04T02:08:05;11.25;;;8.60;;
787;SDS011;16074;42.708;23.312;2023-12-04T02:10:33;10.90;;;9.23;;
787;SDS011;16074;42.708;23.312;2023-12-04T02:13:01;12.82;;;8.77;;
787;SDS011;16074;42.708;23.312;2023-12-04T02:15:29;10.50;;;8.55;;
787;SDS011;16074;42.708;23.312;2023-12-04T02:17:59;10.85;;;8.80;;
787;SDS011;16074;42.708;23.312;2023-12-04T02:20:30;9.40;;;7.90;;
787;SDS011;16074;42.708;23.312;2023-12-04T02:23:00;10.75;;;8.77;;
787;SDS011;16074;42.708;23.312;2023-12-04T02:25:30;10.90;;;8.75;;
787;SDS011;16074;42.708;23.312;2023-12-04T02:28:04;12.50;;;9.02;;
787;SDS011;16074;42.708;23.312;2023-12-04T02:30:35;10.88;;;8.32;;
787;SDS011;16074;42.708;23.312;2023-12-04T02:33:07;8.60;;;7.80;;
787;SDS011;16074;42.708;23.312;2023-12-04T02:35:36;11.90;;;8.40;;
787;SDS011;16074;42.708;23.312;2023-12-04T02:38:07;10.52;;;8.30;;
787;SDS011;16074;42.708;23.312;2023-12-04T02:40:37;8.70;;;7.65;;
787;SDS011;16074;42.708;23.312;2023-12-04T02:43:05;9.52;;;8.18;;
787;SDS011;16074;42.708;23.312;2023-12-04T02:45:33;9.77;;;8.35;;
787;SDS011;16074;42.708;23.312;2023-12-04T02:48:01;10.27;;;8.15;;
787;SDS011;16074;42.708;23.312;2023-12-04T02:50:30;12.80;;;8.88;;
787;SDS011;16074;42.708;23.312;2023-12-04T02:52:58;11.80;;;8.85;;
787;SDS011;16074;42.708;23.312;2023-12-04T02:55:26;9.88;;;8.75;;
787;SDS011;16074;42.708;23.312;2023-12-04T02:57:56;12.73;;;9.10;;
787;SDS011;16074;42.708;23.312;2023-12-04T03:00:24;9.98;;;7.57;;
787;SDS011;16074;42.708;23.312;2023-12-04T03:02:53;10.43;;;7.90;;
787;SDS011;16074;42.708;23.312;2023-12-04T03:05:21;9.20;;;7.63;;
787;SDS011;16074;42.708;23.312;2023-12-04T03:07:49;9.50;;;7.50;;
787;SDS011;16074;42.708;23.312;2023-12-04T03:10:17;10.98;;;8.55;;
787;SDS011;16074;42.708;23.312;2023-12-04T03:12:45;8.90;;;7.80;;
787;SDS011;16074;42.708;23.312;2023-12-04T03:15:15;10.98;;;8.02;;
787;SDS011;16074;42.708;23.312;2023-12-04T03:17:43;11.20;;;7.78;;
787;SDS011;16074;42.708;23.312;2023-12-04T03:20:11;9.68;;;8.65;;
787;SDS011;16074;42.708;23.312;2023-12-04T03:22:39;9.00;;;7.40;;
787;SDS011;16074;42.708;23.312;2023-12-04T03:25:08;10.27;;;8.57;;
787;SDS011;16074;42.708;23.312;2023-12-04T03:27:36;9.90;;;7.10;;
787;SDS011;16074;42.708;23.312;2023-12-04T03:30:05;12.75;;;9.65;;
787;SDS011;16074;42.708;23.312;2023-12-04T03:32:35;8.43;;;7.55;;
787;SDS011;16074;42.708;23.312;2023-12-04T03:35:03;10.98;;;8.73;;
787;SDS011;16074;42.708;23.312;2023-12-04T03:37:34;10.07;;;7.60;;
787;SDS011;16074;42.708;23.312;2023-12-04T03:40:02;9.13;;;8.18;;
787;SDS011;16074;42.708;23.312;2023-12-04T03:42:31;13.90;;;9.90;;
787;SDS011;16074;42.708;23.312;2023-12-04T03:44:59;8.98;;;7.40;;
787;SDS011;16074;42.708;23.312;2023-12-04T03:47:27;9.15;;;7.75;;
787;SDS011;16074;42.708;23.312;2023-12-04T03:49:57;11.80;;;7.97;;
787;SDS011;16074;42.708;23.312;2023-12-04T03:52:25;9.13;;;8.20;;
787;SDS011;16074;42.708;23.312;2023-12-04T03:54:53;10.02;;;8.57;;
787;SDS011;16074;42.708;23.312;2023-12-04T03:57:21;10.95;;;7.75;;
787;SDS011;16074;42.708;23.312;2023-12-04T03:59:49;10.63;;;8.48;;
787;SDS011;16074;42.708;23.312;2023-12-04T04:02:17;10.18;;;8.63;;
787;SDS011;16074;42.708;23.312;2023-12-04T04:04:45;10.07;;;8.95;;
787;SDS011;16074;42.708;23.312;2023-12-04T04:07:15;10.30;;;7.53;;
787;SDS011;16074;42.708;23.312;2023-12-04T04:09:43;8.43;;;7.53;;
787;SDS011;16074;42.708;23.312;2023-12-04T04:12:11;7.40;;;6.70;;
787;SDS011;16074;42.708;23.312;2023-12-04T04:14:39;9.73;;;8.50;;
787;SDS011;16074;42.708;23.312;2023-12-04T04:17:08;8.15;;;7.18;;
787;SDS011;16074;42.708;23.312;2023-12-04T04:19:36;12.30;;;8.73;;
787;SDS011;16074;42.708;23.312;2023-12-04T04:22:04;10.95;;;8.90;;
787;SDS011;16074;42.708;23.312;2023-12-04T04:24:33;9.93;;;8.10;;
787;SDS011;16074;42.708;23.312;2023-12-04T04:27:01;10.40;;;8.18;;
787;SDS011;16074;42.708;23.312;2023-12-04T04:29:29;12.82;;;9.00;;
787;SDS011;16074;42.708;23.312;2023-12-04T04:31:57;12.88;;;9.57;;
787;SDS011;16074;42.708;23.312;2023-12-04T04:34:26;9.30;;;8.38;;
787;SDS011;16074;42.708;23.312;2023-12-04T04:36:54;9.27;;;7.78;;
787;SDS011;16074;42.708;23.312;2023-12-04T04:39:23;9.55;;;8.55;;
787;SDS011;16074;42.708;23.312;2023-12-04T04:41:52;12.40;;;8.30;;
787;SDS011;16074;42.708;23.312;2023-12-04T04:44:20;11.73;;;10.23;;
787;SDS011;16074;42.708;23.312;2023-12-04T04:46:50;8.35;;;7.50;;
787;SDS011;16074;42.708;23.312;2023-12-04T04:49:18;12.27;;;9.05;;
787;SDS011;16074;42.708;23.312;2023-12-04T04:51:46;8.77;;;7.15;;
787;SDS011;16074;42.708;23.312;2023-12-04T04:54:15;13.63;;;9.80;;
787;SDS011;16074;42.708;23.312;2023-12-04T04:56:43;11.73;;;8.80;;
787;SDS011;16074;42.708;23.312;2023-12-04T04:59:12;10.18;;;9.10;;
787;SDS011;16074;42.708;23.312;2023-12-04T05:01:40;11.32;;;8.82;;
787;SDS011;16074;42.708;23.312;2023-12-04T05:04:09;10.68;;;8.80;;
787;SDS011;16074;42.708;23.312;2023-12-04T05:06:37;11.07;;;9.73;;
787;SDS011;16074;42.708;23.312;2023-12-04T05:09:05;10.48;;;9.27;;
787;SDS011;16074;42.708;23.312;2023-12-04T05:11:33;9.60;;;8.30;;
787;SDS011;16074;42.708;23.312;2023-12-04T05:14:01;9.55;;;7.72;;
787;SDS011;16074;42.708;23.312;2023-12-04T05:16:31;8.82;;;7.93;;
787;SDS011;16074;42.708;23.312;2023-12-04T05:18:59;9.32;;;8.15;;
787;SDS011;16074;42.708;23.312;2023-12-04T05:21:27;9.63;;;8.63;;
787;SDS011;16074;42.708;23.312;2023-12-04T05:23:56;10.55;;;8.02;;
787;SDS011;16074;42.708;23.312;2023-12-04T05:26:24;9.65;;;8.55;;
787;SDS011;16074;42.708;23.312;2023-12-04T05:28:52;13.75;;;8.90;;
787;SDS011;16074;42.708;23.312;2023-12-04T05:31:20;11.52;;;8.63;;
787;SDS011;16074;42.708;23.312;2023-12-04T05:33:50;9.45;;;8.63;;
787;SDS011;16074;42.708;23.312;2023-12-04T05:36:18;9.55;;;8.65;;
787;SDS011;16074;42.708;23.312;2023-12-04T05:38:46;11.23;;;8.90;;
787;SDS011;16074;42.708;23.312;2023-12-04T05:41:14;9.85;;;7.63;;
787;SDS011;16074;42.708;23.312;2023-12-04T05:43:42;9.95;;;8.00;;
787;SDS011;16074;42.708;23.312;2023-12-04T05:46:11;11.73;;;8.40;;
787;SDS011;16074;42.708;23.312;2023-12-04T05:48:39;11.82;;;9.10;;
787;SDS011;16074;42.708;23.312;2023-12-04T05:51:09;9.82;;;8.45;;
787;SDS011;16074;42.708;23.312;2023-12-04T05:53:37;11.35;;;7.93;;
787;SDS011;16074;42.708;23.312;2023-12-04T05:56:06;10.80;;;8.77;;
787;SDS011;16074;42.708;23.312;2023-12-04T05:58:36;12.10;;;9.40;;
787;SDS011;16074;42.708;23.312;2023-12-04T06:01:04;13.05;;;9.18;;
787;SDS011;16074;42.708;23.312;2023-12-04T06:03:32;11.05;;;9.80;;
787;SDS011;16074;42.708;23.312;2023-12-04T06:06:01;9.40;;;8.50;;
787;SDS011;16074;42.708;23.312;2023-12-04T06:08:32;10.68;;;7.95;;
787;SDS011;16074;42.708;23.312;2023-12-04T06:11:00;9.63;;;7.40;;
787;SDS011;16074;42.708;23.312;2023-12-04T06:13:29;10.07;;;8.38;;
787;SDS011;16074;42.708;23.312;2023-12-04T06:15:57;10.32;;;8.35;;
787;SDS011;16074;42.708;23.312;2023-12-04T06:18:25;11.00;;;8.32;;
787;SDS011;16074;42.708;23.312;2023-12-04T06:20:55;10.88;;;9.15;;
787;SDS011;16074;42.708;23.312;2023-12-04T06:23:23;9.80;;;8.80;;
787;SDS011;16074;42.708;23.312;2023-12-04T06:25:53;10.10;;;8.80;;
787;SDS011;16074;42.708;23.312;2023-12-04T06:28:22;11.10;;;8.90;;
787;SDS011;16074;42.708;23.312;2023-12-04T06:30:51;10.05;;;8.10;;
787;SDS011;16074;42.708;23.312;2023-12-04T06:33:20;9.68;;;8.23;;
787;SDS011;16074;42.708;23.312;2023-12-04T06:35:49;11.35;;;9.88;;
787;SDS011;16074;42.708;23.312;2023-12-04T06:38:17;11.43;;;8.02;;
787;SDS011;16074;42.708;23.312;2023-12-04T06:40:47;9.68;;;8.10;;
787;SDS011;16074;42.708;23.312;2023-12-04T06:43:17;8.57;;;7.75;;
787;SDS011;16074;42.708;23.312;2023-12-04T06:45:46;10.73;;;8.45;;
787;SDS011;16074;42.708;23.312;2023-12-04T06:48:14;13.38;;;9.00;;
787;SDS011;16074;42.708;23.312;2023-12-04T06:50:43;12.38;;;8.18;;
787;SDS011;16074;42.708;23.312;2023-12-04T06:53:12;8.93;;;7.78;;
787;SDS011;16074;42.708;23.312;2023-12-04T06:55:40;10.75;;;8.07;;
787;SDS011;16074;42.708;23.312;2023-12-04T06:58:08;9.55;;;7.75;;
787;SDS011;16074;42.708;23.312;2023-12-04T07:00:38;10.57;;;8.80;;
787;SDS011;16074;42.708;23.312;2023-12-04T07:03:06;9.38;;;8.48;;
787;SDS011;16074;42.708;23.312;2023-12-04T07:05:34;9.82;;;8.88;;
787;SDS011;16074;42.708;23.312;2023-12-04T07:08:02;10.15;;;8.10;;
787;SDS011;16074;42.708;23.312;2023-12-04T07:10:31;10.02;;;8.90;;
787;SDS011;16074;42.708;23.312;2023-12-04T07:13:01;8.43;;;7.35;;
787;SDS011;16074;42.708;23.312;2023-12-04T07:15:31;10.70;;;8.57;;
787;SDS011;16074;42.708;23.312;2023-12-04T07:18:00;12.40;;;8.38;;
787;SDS011;16074;42.708;23.312;2023-12-04T07:20:28;10.38;;;9.10;;
787;SDS011;16074;42.708;23.312;2023-12-04T07:22:56;9.38;;;8.23;;
787;SDS011;16074;42.708;23.312;2023-12-04T07:25:25;10.55;;;8.73;;
787;SDS011;16074;42.708;23.312;2023-12-04T07:27:53;10.25;;;9.10;;
787;SDS011;16074;42.708;23.312;2023-12-04T07:30:21;9.40;;;8.30;;
787;SDS011;16074;42.708;23.312;2023-12-04T07:32:51;10.77;;;8.55;;
787;SDS011;16074;42.708;23.312;2023-12-04T07:35:21;11.48;;;8.82;;
787;SDS011;16074;42.708;23.312;2023-12-04T07:37:49;11.77;;;8.70;;
787;SDS011;16074;42.708;23.312;2023-12-04T07:40:18;11.50;;;8.13;;
787;SDS011;16074;42.708;23.312;2023-12-04T07:42:48;11.15;;;8.85;;
787;SDS011;16074;42.708;23.312;2023-12-04T07:45:16;7.45;;;6.75;;
787;SDS011;16074;42.708;23.312;2023-12-04T07:47:44;10.98;;;7.35;;
787;SDS011;16074;42.708;23.312;2023-12-04T07:50:13;13.73;;;8.02;;
787;SDS011;16074;42.708;23.312;2023-12-04T07:52:42;7.20;;;6.25;;
787;SDS011;16074;42.708;23.312;2023-12-04T07:55:10;9.10;;;8.15;;
787;SDS011;16074;42.708;23.312;2023-12-04T07:57:39;14.88;;;8.40;;
787;SDS011;16074;42.708;23.312;2023-12-04T08:00:07;10.65;;;8.38;;
787;SDS011;16074;42.708;23.312;2023-12-04T08:02:35;8.38;;;7.03;;
787;SDS011;16074;42.708;23.312;2023-12-04T08:05:04;11.98;;;9.68;;
787;SDS011;16074;42.708;23.312;2023-12-04T08:07:34;8.85;;;7.78;;
787;SDS011;16074;42.708;23.312;2023-12-04T08:10:04;8.60;;;7.70;;
787;SDS011;16074;42.708;23.312;2023-12-04T08:12:33;9.65;;;7.30;;
787;SDS011;16074;42.708;23.312;2023-12-04T08:15:01;11.98;;;9.75;;
787;SDS011;16074;42.708;23.312;2023-12-04T08:17:31;11.00;;;8.00;;
787;SDS011;16074;42.708;23.312;2023-12-04T08:19:59;11.00;;;7.88;;
787;SDS011;16074;42.708;23.312;2023-12-04T08:22:28;8.23;;;7.43;;
787;SDS011;16074;42.708;23.312;2023-12-04T08:24:56;7.97;;;7.18;;
787;SDS011;16074;42.708;23.312;2023-12-04T08:27:26;9.70;;;8.15;;
787;SDS011;16074;42.708;23.312;2023-12-04T08:29:54;10.80;;;8.45;;
787;SDS011;16074;42.708;23.312;2023-12-04T08:32:22;8.77;;;6.72;;
787;SDS011;16074;42.708;23.312;2023-12-04T08:34:51;8.32;;;6.90;;
787;SDS011;16074;42.708;23.312;2023-12-04T08:37:19;8.52;;;7.60;;
787;SDS011;16074;42.708;23.312;2023-12-04T08:39:48;9.88;;;6.95;;
787;SDS011;16074;42.708;23.312;2023-12-04T08:42:16;8.23;;;7.40;;
787;SDS011;16074;42.708;23.312;2023-12-04T08:44:51;8.75;;;6.97;;
787;SDS011;16074;42.708;23.312;2023-12-04T08:47:19;8.65;;;7.78;;
787;SDS011;16074;42.708;23.312;2023-12-04T08:49:48;8.50;;;7.25;;
787;SDS011;16074;42.708;23.312;2023-12-04T08:52:16;7.28;;;6.47;;
787;SDS011;16074;42.708;23.312;2023-12-04T08:54:44;7.55;;;6.90;;
787;SDS011;16074;42.708;23.312;2023-12-04T08:57:13;8.90;;;6.65;;
787;SDS011;16074;42.708;23.312;2023-12-04T08:59:41;6.60;;;6.10;;
787;SDS011;16074;42.708;23.312;2023-12-04T09:02:11;8.25;;;6.15;;
787;SDS011;16074;42.708;23.312;2023-12-04T09:04:40;6.35;;;5.75;;
787;SDS011;16074;42.708;23.312;2023-12-04T09:07:09;7.53;;;6.70;;
787;SDS011;16074;42.708;23.312;2023-12-04T09:09:57;10.90;;;9.82;;
787;SDS011;16074;42.708;23.312;2023-12-04T09:12:31;8.60;;;7.47;;
787;SDS011;16074;42.708;23.312;2023-12-04T09:15:02;7.53;;;6.82;;
787;SDS011;16074;42.708;23.312;2023-12-04T09:17:34;7.72;;;7.00;;
787;SDS011;16074;42.708;23.312;2023-12-04T09:20:05;8.48;;;6.28;;
787;SDS011;16074;42.708;23.312;2023-12-04T09:22:34;6.88;;;5.85;;
787;SDS011;16074;42.708;23.312;2023-12-04T09:25:09;7.20;;;6.38;;
787;SDS011;16074;42.708;23.312;2023-12-04T09:27:38;7.40;;;6.70;;
787;SDS011;16074;42.708;23.312;2023-12-04T09:30:07;7.90;;;7.30;;
787;SDS011;16074;42.708;23.312;2023-12-04T09:32:37;7.90;;;7.20;;
787;SDS011;16074;42.708;23.312;2023-12-04T09:35:05;7.05;;;6.30;;
787;SDS011;16074;42.708;23.312;2023-12-04T09:37:34;7.00;;;6.40;;
787;SDS011;16074;42.708;23.312;2023-12-04T09:40:02;6.95;;;6.30;;
787;SDS011;16074;42.708;23.312;2023-12-04T09:42:32;9.00;;;6.80;;
787;SDS011;16074;42.708;23.312;2023-12-04T09:45:01;6.53;;;6.00;;
787;SDS011;16074;42.708;23.312;2023-12-04T09:47:30;8.15;;;7.45;;
787;SDS011;16074;42.708;23.312;2023-12-04T09:50:02;7.40;;;6.80;;
787;SDS011;16074;42.708;23.312;2023-12-04T09:52:33;7.57;;;6.90;;
787;SDS011;16074;42.708;23.312;2023-12-04T09:55:03;7.90;;;7.22;;
787;SDS011;16074;42.708;23.312;2023-12-04T09:57:32;7.40;;;6.70;;
787;SDS011;16074;42.708;23.312;2023-12-04T10:00:02;7.93;;;7.18;;
787;SDS011;16074;42.708;23.312;2023-12-04T10:02:37;6.72;;;5.90;;
787;SDS011;16074;42.708;23.312;2023-12-04T10:05:07;9.07;;;7.38;;
787;SDS011;16074;42.708;23.312;2023-12-04T10:07:36;6.25;;;5.75;;
787;SDS011;16074;42.708;23.312;2023-12-04T10:10:07;9.00;;;7.15;;
787;SDS011;16074;42.708;23.312;2023-12-04T10:12:36;7.72;;;7.03;;
787;SDS011;16074;42.708;23.312;2023-12-04T10:15:05;8.15;;;7.38;;
787;SDS011;16074;42.708;23.312;2023-12-04T10:17:35;8.65;;;7.38;;
787;SDS011;16074;42.708;23.312;2023-12-04T10:20:05;8.95;;;7.07;;
787;SDS011;16074;42.708;23.312;2023-12-04T10:22:39;7.97;;;7.18;;
787;SDS011;16074;42.708;23.312;2023-12-04T10:25:14;9.55;;;8.65;;
787;SDS011;16074;42.708;23.312;2023-12-04T10:27:43;7.72;;;6.97;;
787;SDS011;16074;42.708;23.312;2023-12-04T10:30:22;9.05;;;6.95;;
787;SDS011;16074;42.708;23.312;2023-12-04T10:32:55;8.18;;;7.38;;
787;SDS011;16074;42.708;23.312;2023-12-04T10:35:32;9.07;;;8.18;;
787;SDS011;16074;42.708;23.312;2023-12-04T10:38:03;9.57;;;8.38;;
787;SDS011;16074;42.708;23.312;2023-12-04T10:40:32;8.27;;;7.57;;
787;SDS011;16074;42.708;23.312;2023-12-04T10:43:09;20.02;;;16.50;;
787;SDS011;16074;42.708;23.312;2023-12-04T10:45:39;8.90;;;8.02;;
787;SDS011;16074;42.708;23.312;2023-12-04T10:48:09;8.25;;;7.45;;
787;SDS011;16074;42.708;23.312;2023-12-04T10:50:40;12.25;;;8.18;;
787;SDS011;16074;42.708;23.312;2023-12-04T10:53:10;11.55;;;10.23;;
787;SDS011;16074;42.708;23.312;2023-12-04T10:55:39;12.05;;;7.05;;
787;SDS011;16074;42.708;23.312;2023-12-04T10:58:09;9.05;;;8.23;;
787;SDS011;16074;42.708;23.312;2023-12-04T11:00:39;12.10;;;10.80;;
787;SDS011;16074;42.708;23.312;2023-12-04T11:03:09;10.30;;;8.70;;
787;SDS011;16074;42.708;23.312;2023-12-04T11:05:42;7.65;;;7.05;;
787;SDS011;16074;42.708;23.312;2023-12-04T11:08:13;8.82;;;8.00;;
787;SDS011;16074;42.708;23.312;2023-12-04T11:10:45;9.30;;;7.32;;
787;SDS011;16074;42.708;23.312;2023-12-04T11:13:17;9.00;;;8.10;;
787;SDS011;16074;42.708;23.312;2023-12-04T11:15:49;8.70;;;8.00;;
787;SDS011;16074;42.708;23.312;2023-12-04T11:18:21;8.93;;;8.13;;
787;SDS011;16074;42.708;23.312;2023-12-04T11:20:54;7.97;;;7.28;;
787;SDS011;16074;42.708;23.312;2023-12-04T11:23:25;9.15;;;7.88;;
787;SDS011;16074;42.708;23.312;2023-12-04T11:25:54;8.93;;;7.65;;
787;SDS011;16074;42.708;23.312;2023-12-04T11:28:24;9.30;;;7.78;;
787;SDS011;16074;42.708;23.312;2023-12-04T11:30:54;8.57;;;7.78;;
787;SDS011;16074;42.708;23.312;2023-12-04T11:33:23;13.43;;;7.95;;
787;SDS011;16074;42.708;23.312;2023-12-04T11:35:51;9.02;;;8.10;;
787;SDS011;16074;42.708;23.312;2023-12-04T11:38:21;8.70;;;7.82;;
787;SDS011;16074;42.708;23.312;2023-12-04T11:40:50;10.65;;;8.10;;
787;SDS011;16074;42.708;23.312;2023-12-04T11:43:24;9.02;;;8.20;;
787;SDS011;16074;42.708;23.312;2023-12-04T11:45:52;9.48;;;8.13;;
787;SDS011;16074;42.708;23.312;2023-12-04T11:48:22;10.88;;;8.35;;
787;SDS011;16074;42.708;23.312;2023-12-04T11:50:51;11.70;;;8.93;;
787;SDS011;16074;42.708;23.312;2023-12-04T11:53:23;9.93;;;8.45;;
787;SDS011;16074;42.708;23.312;2023-12-04T11:55:51;10.82;;;8.38;;
787;SDS011;16074;42.708;23.312;2023-12-04T11:58:23;10.27;;;8.25;;
787;SDS011;16074;42.708;23.312;2023-12-04T12:00:51;10.45;;;8.95;;
787;SDS011;16074;42.708;23.312;2023-12-04T12:03:22;9.10;;;8.20;;
787;SDS011;16074;42.708;23.312;2023-12-04T12:05:51;10.20;;;8.80;;
787;SDS011;16074;42.708;23.312;2023-12-04T12:08:20;8.65;;;7.80;;
787;SDS011;16074;42.708;23.312;2023-12-04T12:10:52;10.98;;;9.70;;
787;SDS011;16074;42.708;23.312;2023-12-04T12:13:21;9.48;;;8.50;;
787;SDS011;16074;42.708;23.312;2023-12-04T12:15:52;10.10;;;8.98;;
787;SDS011;16074;42.708;23.312;2023-12-04T12:18:21;10.98;;;9.88;;
787;SDS011;16074;42.708;23.312;2023-12-04T12:20:54;10.20;;;9.25;;
787;SDS011;16074;42.708;23.312;2023-12-04T12:23:24;12.15;;;10.95;;
787;SDS011;16074;42.708;23.312;2023-12-04T12:25:52;11.18;;;10.10;;
787;SDS011;16074;42.708;23.312;2023-12-04T12:28:21;13.95;;;10.48;;
787;SDS011;16074;42.708;23.312;2023-12-04T12:30:49;10.85;;;9.65;;
787;SDS011;16074;42.708;23.312;2023-12-04T12:33:19;14.35;;;11.57;;
787;SDS011;16074;42.708;23.312;2023-12-04T12:35:49;12.45;;;11.10;;
787;SDS011;16074;42.708;23.312;2023-12-04T12:38:30;12.55;;;10.45;;
787;SDS011;16074;42.708;23.312;2023-12-04T12:41:01;14.15;;;11.77;;
787;SDS011;16074;42.708;23.312;2023-12-04T12:43:35;13.65;;;11.73;;
787;SDS011;16074;42.708;23.312;2023-12-04T12:46:04;14.60;;;11.60;;
787;SDS011;16074;42.708;23.312;2023-12-04T12:48:33;12.63;;;11.30;;
787;SDS011;16074;42.708;23.312;2023-12-04T12:51:02;18.10;;;12.07;;
787;SDS011;16074;42.708;23.312;2023-12-04T12:53:33;13.43;;;12.02;;
787;SDS011;16074;42.708;23.312;2023-12-04T12:56:01;13.70;;;11.70;;
787;SDS011;16074;42.708;23.312;2023-12-04T12:58:31;13.63;;;12.23;;
787;SDS011;16074;42.708;23.312;2023-12-04T13:00:59;15.88;;;12.30;;
787;SDS011;16074;42.708;23.312;2023-12-04T13:03:28;13.45;;;11.68;;
787;SDS011;16074;42.708;23.312;2023-12-04T13:05:58;15.38;;;13.77;;
787;SDS011;16074;42.708;23.312;2023-12-04T13:08:27;14.70;;;13.00;;
787;SDS011;16074;42.708;23.312;2023-12-04T13:10:56;15.05;;;13.13;;
787;SDS011;16074;42.708;23.312;2023-12-04T13:13:24;19.27;;;12.50;;
787;SDS011;16074;42.708;23.312;2023-12-04T13:15:53;15.43;;;13.18;;
787;SDS011;16074;42.708;23.312;2023-12-04T13:18:23;17.55;;;13.00;;
787;SDS011;16074;42.708;23.312;2023-12-04T13:20:51;14.85;;;12.88;;
787;SDS011;16074;42.708;23.312;2023-12-04T13:23:19;15.02;;;13.30;;
787;SDS011;16074;42.708;23.312;2023-12-04T13:25:50;14.32;;;12.40;;
787;SDS011;16074;42.708;23.312;2023-12-04T13:28:23;15.52;;;12.85;;
787;SDS011;16074;42.708;23.312;2023-12-04T13:31:02;14.80;;;13.38;;
787;SDS011;16074;42.708;23.312;2023-12-04T13:33:30;14.13;;;12.50;;
787;SDS011;16074;42.708;23.312;2023-12-04T13:35:59;15.65;;;13.50;;
787;SDS011;16074;42.708;23.312;2023-12-04T13:38:27;14.95;;;12.23;;
787;SDS011;16074;42.708;23.312;2023-12-04T13:41:03;15.90;;;13.02;;
787;SDS011;16074;42.708;23.312;2023-12-04T13:43:57;17.70;;;12.23;;
787;SDS011;16074;42.708;23.312;2023-12-04T13:46:26;18.50;;;12.23;;
787;SDS011;16074;42.708;23.312;2023-12-04T13:48:56;16.38;;;12.90;;
787;SDS011;16074;42.708;23.312;2023-12-04T13:51:25;18.63;;;15.05;;
787;SDS011;16074;42.708;23.312;2023-12-04T13:53:53;13.43;;;12.05;;
787;SDS011;16074;42.708;23.312;2023-12-04T13:56:29;20.33;;;12.32;;
787;SDS011;16074;42.708;23.312;2023-12-04T13:59:11;14.65;;;13.15;;
787;SDS011;16074;42.708;23.312;2023-12-04T14:01:45;15.85;;;13.07;;
787;SDS011;16074;42.708;23.312;2023-12-04T14:04:13;14.85;;;12.98;;
787;SDS011;16074;42.708;23.312;2023-12-04T14:06:42;17.73;;;14.02;;
787;SDS011;16074;42.708;23.312;2023-12-04T14:09:10;17.63;;;13.00;;
787;SDS011;16074;42.708;23.312;2023-12-04T14:11:42;14.52;;;13.02;;
787;SDS011;16074;42.708;23.312;2023-12-04T14:14:13;18.00;;;13.40;;
787;SDS011;16074;42.708;23.312;2023-12-04T14:16:41;15.00;;;13.32;;
787;SDS011;16074;42.708;23.312;2023-12-04T14:19:12;19.42;;;12.73;;
787;SDS011;16074;42.708;23.312;2023-12-04T14:21:43;13.70;;;11.13;;
787;SDS011;16074;42.708;23.312;2023-12-04T14:24:12;14.13;;;12.65;;
787;SDS011;16074;42.708;23.312;2023-12-04T14:26:39;12.20;;;10.90;;
787;SDS011;16074;42.708;23.312;2023-12-04T14:29:07;13.68;;;12.13;;
787;SDS011;16074;42.708;23.312;2023-12-04T14:31:37;19.48;;;13.00;;
787;SDS011;16074;42.708;23.312;2023-12-04T14:34:05;15.90;;;11.13;;
787;SDS011;16074;42.708;23.312;2023-12-04T14:36:33;14.98;;;13.05;;
787;SDS011;16074;42.708;23.312;2023-12-04T14:39:04;11.45;;;10.23;;
787;SDS011;16074;42.708;23.312;2023-12-04T14:41:33;13.93;;;11.98;;
787;SDS011;16074;42.708;23.312;2023-12-04T14:44:01;14.02;;;12.10;;
787;SDS011;16074;42.708;23.312;2023-12-04T14:46:30;17.20;;;13.30;;
787;SDS011;16074;42.708;23.312;2023-12-04T14:48:59;14.25;;;12.32;;
787;SDS011;16074;42.708;23.312;2023-12-04T14:51:27;16.52;;;12.40;;
787;SDS011;16074;42.708;23.312;2023-12-04T14:53:56;14.93;;;12.65;;
787;SDS011;16074;42.708;23.312;2023-12-04T14:56:41;19.83;;;13.15;;
787;SDS011;16074;42.708;23.312;2023-12-04T14:59:26;21.17;;;13.48;;
787;SDS011;16074;42.708;23.312;2023-12-04T15:02:33;25.48;;;18.90;;
787;SDS011;16074;42.708;23.312;2023-12-04T15:05:32;28.80;;;20.45;;